sensor_id;sensor_type;location;lat;lon;timestamp;pressure;altitude;pressure_sealevel;temperature;humidity
13836;BME280;6988;52.614;13.500;2022-12-16T00:03:24;55160.84;;;-143.77;78.19
13836;BME280;6988;52.614;13.500;2022-12-16T00:08:17;55164.94;;;-143.77;78.26
13836;BME280;6988;52.614;13.500;2022-12-16T00:13:10;55156.75;;;-143.77;78.67
13836;BME280;6988;52.614;13.500;2022-12-16T00:18:03;55132.13;;;-143.77;79.32
13836;BME280;6988;52.614;13.500;2022-12-16T00:22:56;55162.91;;;-143.77;79.40
13836;BME280;6988;52.614;13.500;2022-12-16T00:27:47;55115.69;;;-143.77;79.22
13836;BME280;6988;52.614;13.500;2022-12-16T00:32:39;55175.22;;;-143.77;78.43
13836;BME280;6988;52.614;13.500;2022-12-16T00:37:33;55113.66;;;-143.77;78.50
13836;BME280;6988;52.614;13.500;2022-12-16T00:42:25;55142.38;;;-143.77;78.67
13836;BME280;6988;52.614;13.500;2022-12-16T00:47:17;55173.16;;;-143.77;79.02
13836;BME280;6988;52.614;13.500;2022-12-16T00:52:08;55158.78;;;-143.77;78.60
13836;BME280;6988;52.614;13.500;2022-12-16T00:57:02;55140.31;;;-143.77;78.74
13836;BME280;6988;52.614;13.500;2022-12-16T01:01:54;55148.53;;;-143.77;78.63
13836;BME280;6988;52.614;13.500;2022-12-16T01:06:46;55140.31;;;-143.77;78.31
13836;BME280;6988;52.614;13.500;2022-12-16T01:11:38;55171.09;;;-143.77;78.64
13836;BME280;6988;52.614;13.500;2022-12-16T01:16:31;55187.53;;;-143.77;79.60
13836;BME280;6988;52.614;13.500;2022-12-16T01:21:24;55152.63;;;-143.77;79.73
13836;BME280;6988;52.614;13.500;2022-12-16T01:26:17;55148.53;;;-143.77;80.03
13836;BME280;6988;52.614;13.500;2022-12-16T01:31:10;55222.41;;;-143.77;80.10
13836;BME280;6988;52.614;13.500;2022-12-16T01:36:06;55144.44;;;-143.77;79.66
13836;BME280;6988;52.614;13.500;2022-12-16T01:40:59;55169.06;;;-143.77;79.94
13836;BME280;6988;52.614;13.500;2022-12-16T01:45:55;55160.84;;;-143.77;79.50
13836;BME280;6988;52.614;13.500;2022-12-16T01:50:56;55169.06;;;-143.77;79.82
13836;BME280;6988;52.614;13.500;2022-12-16T01:55:54;55164.94;;;-143.77;79.87
13836;BME280;6988;52.614;13.500;2022-12-16T02:00:46;55193.69;;;-143.77;80.01
13836;BME280;6988;52.614;13.500;2022-12-16T02:05:41;55156.75;;;-143.77;80.07
13836;BME280;6988;52.614;13.500;2022-12-16T02:10:50;55169.06;;;-143.77;80.45
13836;BME280;6988;52.614;13.500;2022-12-16T02:16:00;55177.25;;;-143.77;80.54
13836;BME280;6988;52.614;13.500;2022-12-16T02:21:16;55156.75;;;-143.77;80.39
13836;BME280;6988;52.614;13.500;2022-12-16T02:31:59;55160.84;;;-143.77;80.41
13836;BME280;6988;52.614;13.500;2022-12-16T02:37:09;55177.25;;;-143.77;80.45
13836;BME280;6988;52.614;13.500;2022-12-16T02:42:13;55160.84;;;-143.77;80.60
13836;BME280;6988;52.614;13.500;2022-12-16T02:47:08;55173.16;;;-143.77;79.47
13836;BME280;6988;52.614;13.500;2022-12-16T02:52:01;55160.84;;;-143.77;79.27
13836;BME280;6988;52.614;13.500;2022-12-16T02:57:05;55148.53;;;-143.77;78.90
13836;BME280;6988;52.614;13.500;2022-12-16T03:02:09;55144.44;;;-143.77;79.25
13836;BME280;6988;52.614;13.500;2022-12-16T03:07:06;55177.25;;;-143.77;79.32
13836;BME280;6988;52.614;13.500;2022-12-16T03:12:05;55171.09;;;-143.77;79.76
13836;BME280;6988;52.614;13.500;2022-12-16T03:16:59;55185.47;;;-143.77;79.72
13836;BME280;6988;52.614;13.500;2022-12-16T03:21:59;55150.59;;;-143.77;80.36
13836;BME280;6988;52.614;13.500;2022-12-16T03:27:02;55173.16;;;-143.77;80.38
13836;BME280;6988;52.614;13.500;2022-12-16T03:32:01;55169.06;;;-143.77;80.08
13836;BME280;6988;52.614;13.500;2022-12-16T03:37:01;55167.00;;;-143.77;78.60
13836;BME280;6988;52.614;13.500;2022-12-16T03:41:56;55191.63;;;-143.77;78.22
13836;BME280;6988;52.614;13.500;2022-12-16T03:46:48;55181.38;;;-143.77;78.27
13836;BME280;6988;52.614;13.500;2022-12-16T03:51:40;55171.09;;;-143.77;78.68
13836;BME280;6988;52.614;13.500;2022-12-16T03:56:33;55162.91;;;-143.77;78.92
13836;BME280;6988;52.614;13.500;2022-12-16T04:01:25;55171.09;;;-143.77;79.21
13836;BME280;6988;52.614;13.500;2022-12-16T04:06:17;55136.22;;;-143.77;79.25
13836;BME280;6988;52.614;13.500;2022-12-16T04:11:09;55117.75;;;-143.77;79.48
13836;BME280;6988;52.614;13.500;2022-12-16T04:16:20;55183.41;;;-143.77;79.64
13836;BME280;6988;52.614;13.500;2022-12-16T04:21:29;55152.63;;;-143.77;79.58
13836;BME280;6988;52.614;13.500;2022-12-16T04:26:39;55177.25;;;-143.77;79.62
13836;BME280;6988;52.614;13.500;2022-12-16T04:31:46;55169.06;;;-143.77;78.71
13836;BME280;6988;52.614;13.500;2022-12-16T04:36:39;55193.69;;;-143.77;78.76
13836;BME280;6988;52.614;13.500;2022-12-16T04:41:51;55162.91;;;-143.77;78.55
13836;BME280;6988;52.614;13.500;2022-12-16T04:47:02;55160.84;;;-143.77;78.30
13836;BME280;6988;52.614;13.500;2022-12-16T04:52:12;55185.47;;;-143.77;78.21
13836;BME280;6988;52.614;13.500;2022-12-16T04:57:22;55183.41;;;-143.77;77.62
13836;BME280;6988;52.614;13.500;2022-12-16T05:02:32;55189.59;;;-143.77;78.27
13836;BME280;6988;52.614;13.500;2022-12-16T05:07:42;55171.09;;;-143.77;78.93
13836;BME280;6988;52.614;13.500;2022-12-16T05:12:52;55140.31;;;-143.77;79.05
13836;BME280;6988;52.614;13.500;2022-12-16T05:18:08;55212.16;;;-143.77;79.11
13836;BME280;6988;52.614;13.500;2022-12-16T05:23:18;55181.38;;;-143.77;78.95
13836;BME280;6988;52.614;13.500;2022-12-16T05:28:28;55158.78;;;-143.77;79.13
13836;BME280;6988;52.614;13.500;2022-12-16T05:33:38;55177.25;;;-143.77;79.22
13836;BME280;6988;52.614;13.500;2022-12-16T05:38:59;55160.84;;;-143.77;79.44
13836;BME280;6988;52.614;13.500;2022-12-16T05:44:07;55189.59;;;-143.77;79.30
13836;BME280;6988;52.614;13.500;2022-12-16T05:49:18;55148.53;;;-143.77;79.25
13836;BME280;6988;52.614;13.500;2022-12-16T05:54:27;55169.06;;;-143.77;79.23
13836;BME280;6988;52.614;13.500;2022-12-16T05:59:36;55185.47;;;-143.77;79.68
13836;BME280;6988;52.614;13.500;2022-12-16T06:04:47;55189.59;;;-143.77;79.51
13836;BME280;6988;52.614;13.500;2022-12-16T06:09:57;55191.63;;;-143.77;79.22
13836;BME280;6988;52.614;13.500;2022-12-16T06:15:07;55156.75;;;-143.77;79.46
13836;BME280;6988;52.614;13.500;2022-12-16T06:20:19;55169.06;;;-143.77;79.59
13836;BME280;6988;52.614;13.500;2022-12-16T06:25:28;55206.00;;;-143.77;79.52
13836;BME280;6988;52.614;13.500;2022-12-16T06:30:37;55164.94;;;-143.77;79.70
13836;BME280;6988;52.614;13.500;2022-12-16T06:36:04;55191.63;;;-143.77;79.32
13836;BME280;6988;52.614;13.500;2022-12-16T06:41:14;55189.59;;;-143.77;79.29
13836;BME280;6988;52.614;13.500;2022-12-16T06:46:23;55160.84;;;-143.77;79.24
13836;BME280;6988;52.614;13.500;2022-12-16T06:51:34;55164.94;;;-143.77;79.35
13836;BME280;6988;52.614;13.500;2022-12-16T06:56:48;55175.22;;;-143.77;79.03
13836;BME280;6988;52.614;13.500;2022-12-16T07:01:58;55142.38;;;-143.77;79.19
13836;BME280;6988;52.614;13.500;2022-12-16T07:07:08;55185.47;;;-143.77;78.87
13836;BME280;6988;52.614;13.500;2022-12-16T07:12:18;55195.75;;;-143.77;79.09
13836;BME280;6988;52.614;13.500;2022-12-16T07:17:27;55152.63;;;-143.77;78.96
13836;BME280;6988;52.614;13.500;2022-12-16T07:22:41;55183.41;;;-143.77;78.85
13836;BME280;6988;52.614;13.500;2022-12-16T07:27:51;55167.00;;;-143.77;78.52
13836;BME280;6988;52.614;13.500;2022-12-16T07:33:00;55191.63;;;-143.77;78.33
13836;BME280;6988;52.614;13.500;2022-12-16T07:38:11;55175.22;;;-143.77;78.46
13836;BME280;6988;52.614;13.500;2022-12-16T07:43:21;55201.91;;;-143.77;78.60
13836;BME280;6988;52.614;13.500;2022-12-16T07:48:30;55169.06;;;-143.77;78.30
13836;BME280;6988;52.614;13.500;2022-12-16T07:53:41;55173.16;;;-143.77;78.20
13836;BME280;6988;52.614;13.500;2022-12-16T07:59:07;55187.53;;;-143.77;78.32
13836;BME280;6988;52.614;13.500;2022-12-16T08:04:16;55181.38;;;-143.77;78.37
13836;BME280;6988;52.614;13.500;2022-12-16T08:09:36;55142.38;;;-143.77;78.71
13836;BME280;6988;52.614;13.500;2022-12-16T08:14:45;55177.25;;;-143.77;78.57
13836;BME280;6988;52.614;13.500;2022-12-16T08:19:55;55132.13;;;-143.77;78.56
13836;BME280;6988;52.614;13.500;2022-12-16T08:25:06;55156.75;;;-143.77;78.82
13836;BME280;6988;52.614;13.500;2022-12-16T08:30:15;55175.22;;;-143.77;78.81
13836;BME280;6988;52.614;13.500;2022-12-16T08:35:24;55148.53;;;-143.77;79.40
13836;BME280;6988;52.614;13.500;2022-12-16T08:40:35;55121.84;;;-143.77;79.96
13836;BME280;6988;52.614;13.500;2022-12-16T08:45:45;55082.88;;;-143.77;80.52
13836;BME280;6988;52.614;13.500;2022-12-16T08:50:55;55086.97;;;-143.77;81.20
13836;BME280;6988;52.614;13.500;2022-12-16T08:56:06;55119.81;;;-143.77;81.72
13836;BME280;6988;52.614;13.500;2022-12-16T09:01:15;55107.50;;;-143.77;82.21
13836;BME280;6988;52.614;13.500;2022-12-16T09:06:24;55103.38;;;-143.77;82.58
13836;BME280;6988;52.614;13.500;2022-12-16T09:11:35;55076.72;;;-143.77;82.48
13836;BME280;6988;52.614;13.500;2022-12-16T09:16:47;55078.75;;;-143.77;82.10
13836;BME280;6988;52.614;13.500;2022-12-16T09:21:56;55058.25;;;-143.77;81.70
13836;BME280;6988;52.614;13.500;2022-12-16T09:27:07;55070.56;;;-143.77;81.14
13836;BME280;6988;52.614;13.500;2022-12-16T09:32:16;55054.13;;;-143.77;80.41
13836;BME280;6988;52.614;13.500;2022-12-16T09:37:26;55074.66;;;-143.77;80.45
13836;BME280;6988;52.614;13.500;2022-12-16T09:42:47;55023.34;;;-143.77;80.13
13836;BME280;6988;52.614;13.500;2022-12-16T09:48:05;55029.50;;;-143.77;79.75
13836;BME280;6988;52.614;13.500;2022-12-16T09:53:19;55078.75;;;-143.77;79.55
13836;BME280;6988;52.614;13.500;2022-12-16T09:58:38;55070.56;;;-143.77;79.18
13836;BME280;6988;52.614;13.500;2022-12-16T10:03:49;55039.75;;;-143.77;79.81
13836;BME280;6988;52.614;13.500;2022-12-16T10:09:05;55070.56;;;-143.77;79.81
13836;BME280;6988;52.614;13.500;2022-12-16T10:14:25;55041.81;;;-143.77;80.22
13836;BME280;6988;52.614;13.500;2022-12-16T10:19:48;55023.34;;;-143.77;80.42
13836;BME280;6988;52.614;13.500;2022-12-16T10:25:14;55031.56;;;-143.77;79.95
13836;BME280;6988;52.614;13.500;2022-12-16T10:30:27;55017.19;;;-143.77;79.57
13836;BME280;6988;52.614;13.500;2022-12-16T10:35:44;55021.28;;;-143.77;79.54
13836;BME280;6988;52.614;13.500;2022-12-16T10:40:54;55029.50;;;-143.77;79.28
13836;BME280;6988;52.614;13.500;2022-12-16T10:46:18;55029.50;;;-143.77;79.05
13836;BME280;6988;52.614;13.500;2022-12-16T10:51:29;55000.78;;;-143.77;78.63
13836;BME280;6988;52.614;13.500;2022-12-16T10:56:52;55015.13;;;-143.77;79.07
13836;BME280;6988;52.614;13.500;2022-12-16T11:02:18;54986.41;;;-143.77;78.31
13836;BME280;6988;52.614;13.500;2022-12-16T11:07:32;55023.34;;;-143.77;78.13
13836;BME280;6988;52.614;13.500;2022-12-16T11:12:42;54998.72;;;-143.77;78.28
13836;BME280;6988;52.614;13.500;2022-12-16T11:18:05;54959.72;;;-143.77;78.28
13836;BME280;6988;52.614;13.500;2022-12-16T11:23:18;55035.66;;;-143.77;78.27
13836;BME280;6988;52.614;13.500;2022-12-16T11:28:28;55033.59;;;-143.77;78.63
13836;BME280;6988;52.614;13.500;2022-12-16T11:33:39;54988.47;;;-143.77;78.45
13836;BME280;6988;52.614;13.500;2022-12-16T11:38:52;55017.19;;;-143.77;78.47
13836;BME280;6988;52.614;13.500;2022-12-16T11:44:03;54998.72;;;-143.77;78.71
13836;BME280;6988;52.614;13.500;2022-12-16T11:49:24;54996.66;;;-143.77;78.24
13836;BME280;6988;52.614;13.500;2022-12-16T11:54:39;54976.16;;;-143.77;78.34
13836;BME280;6988;52.614;13.500;2022-12-16T11:59:56;55006.94;;;-143.77;78.46
13836;BME280;6988;52.614;13.500;2022-12-16T12:05:12;54992.56;;;-143.77;77.89
13836;BME280;6988;52.614;13.500;2022-12-16T12:10:52;55017.19;;;-143.77;77.89
13836;BME280;6988;52.614;13.500;2022-12-16T12:16:13;54974.09;;;-143.77;78.04
13836;BME280;6988;52.614;13.500;2022-12-16T12:21:34;54976.16;;;-143.77;78.12
13836;BME280;6988;52.614;13.500;2022-12-16T12:26:56;54992.56;;;-143.77;78.07
13836;BME280;6988;52.614;13.500;2022-12-16T12:32:20;55008.97;;;-143.77;78.00
13836;BME280;6988;52.614;13.500;2022-12-16T12:37:42;55000.78;;;-143.77;77.69
13836;BME280;6988;52.614;13.500;2022-12-16T12:42:57;54992.56;;;-143.77;78.17
13836;BME280;6988;52.614;13.500;2022-12-16T12:48:17;54988.47;;;-143.77;78.15
13836;BME280;6988;52.614;13.500;2022-12-16T12:53:43;54939.22;;;-143.77;78.31
13836;BME280;6988;52.614;13.500;2022-12-16T12:59:13;54986.41;;;-143.77;78.27
13836;BME280;6988;52.614;13.500;2022-12-16T13:04:24;55019.25;;;-143.77;78.27
13836;BME280;6988;52.614;13.500;2022-12-16T13:09:38;54996.66;;;-143.77;78.53
13836;BME280;6988;52.614;13.500;2022-12-16T13:14:56;54984.34;;;-143.77;78.65
13836;BME280;6988;52.614;13.500;2022-12-16T13:20:36;54984.34;;;-143.77;78.40
13836;BME280;6988;52.614;13.500;2022-12-16T13:25:50;54988.47;;;-143.77;78.81
13836;BME280;6988;52.614;13.500;2022-12-16T13:31:04;54988.47;;;-143.77;78.85
13836;BME280;6988;52.614;13.500;2022-12-16T13:36:17;54994.63;;;-143.77;79.00
13836;BME280;6988;52.614;13.500;2022-12-16T13:41:58;54992.56;;;-143.77;79.07
13836;BME280;6988;52.614;13.500;2022-12-16T13:47:31;55015.13;;;-143.77;79.01
13836;BME280;6988;52.614;13.500;2022-12-16T13:52:50;55017.19;;;-143.77;78.92
13836;BME280;6988;52.614;13.500;2022-12-16T13:58:20;55008.97;;;-143.77;78.59
13836;BME280;6988;52.614;13.500;2022-12-16T14:03:41;54994.63;;;-143.77;78.62
13836;BME280;6988;52.614;13.500;2022-12-16T14:08:53;55039.75;;;-143.77;78.72
13836;BME280;6988;52.614;13.500;2022-12-16T14:14:25;55033.59;;;-143.77;78.67
13836;BME280;6988;52.614;13.500;2022-12-16T14:19:51;55021.28;;;-143.77;78.74
13836;BME280;6988;52.614;13.500;2022-12-16T14:25:12;55000.78;;;-143.77;78.81
13836;BME280;6988;52.614;13.500;2022-12-16T14:30:24;54994.63;;;-143.77;78.40
13836;BME280;6988;52.614;13.500;2022-12-16T14:35:34;55047.97;;;-143.77;78.25
13836;BME280;6988;52.614;13.500;2022-12-16T14:40:50;55025.41;;;-143.77;78.21
13836;BME280;6988;52.614;13.500;2022-12-16T14:46:01;55006.94;;;-143.77;78.73
13836;BME280;6988;52.614;13.500;2022-12-16T14:51:20;55025.41;;;-143.77;78.17
13836;BME280;6988;52.614;13.500;2022-12-16T14:56:38;55015.13;;;-143.77;78.42
13836;BME280;6988;52.614;13.500;2022-12-16T15:01:52;55045.91;;;-143.77;78.29
13836;BME280;6988;52.614;13.500;2022-12-16T15:07:10;55054.13;;;-143.77;78.73
13836;BME280;6988;52.614;13.500;2022-12-16T15:12:30;55011.03;;;-143.77;78.50
13836;BME280;6988;52.614;13.500;2022-12-16T15:17:49;55041.81;;;-143.77;77.95
13836;BME280;6988;52.614;13.500;2022-12-16T15:23:02;55041.81;;;-143.77;77.91
13836;BME280;6988;52.614;13.500;2022-12-16T15:28:25;55037.72;;;-143.77;78.32
13836;BME280;6988;52.614;13.500;2022-12-16T15:33:37;55021.28;;;-143.77;78.43
13836;BME280;6988;52.614;13.500;2022-12-16T15:38:47;55037.72;;;-143.77;78.48
13836;BME280;6988;52.614;13.500;2022-12-16T15:43:56;55023.34;;;-143.77;78.57
13836;BME280;6988;52.614;13.500;2022-12-16T15:49:19;55033.59;;;-143.77;79.02
13836;BME280;6988;52.614;13.500;2022-12-16T15:54:30;54994.63;;;-143.77;79.26
13836;BME280;6988;52.614;13.500;2022-12-16T15:59:56;55041.81;;;-143.77;79.30
13836;BME280;6988;52.614;13.500;2022-12-16T16:05:23;55033.59;;;-143.77;79.11
13836;BME280;6988;52.614;13.500;2022-12-16T16:10:33;55017.19;;;-143.77;78.98
13836;BME280;6988;52.614;13.500;2022-12-16T16:15:43;55052.09;;;-143.77;79.10
13836;BME280;6988;52.614;13.500;2022-12-16T16:20:54;55058.25;;;-143.77;79.02
13836;BME280;6988;52.614;13.500;2022-12-16T16:26:10;55033.59;;;-143.77;78.74
13836;BME280;6988;52.614;13.500;2022-12-16T16:31:21;55025.41;;;-143.77;78.95
13836;BME280;6988;52.614;13.500;2022-12-16T16:36:32;55045.91;;;-143.77;78.92
13836;BME280;6988;52.614;13.500;2022-12-16T16:41:41;55029.50;;;-143.77;78.52
13836;BME280;6988;52.614;13.500;2022-12-16T16:46:51;55008.97;;;-143.77;79.05
13836;BME280;6988;52.614;13.500;2022-12-16T16:52:02;54998.72;;;-143.77;79.57
13836;BME280;6988;52.614;13.500;2022-12-16T16:57:12;55027.44;;;-143.77;79.47
13836;BME280;6988;52.614;13.500;2022-12-16T17:02:23;55025.41;;;-143.77;79.40
13836;BME280;6988;52.614;13.500;2022-12-16T17:07:34;55008.97;;;-143.77;79.91
13836;BME280;6988;52.614;13.500;2022-12-16T17:12:44;55037.72;;;-143.77;79.79
13836;BME280;6988;52.614;13.500;2022-12-16T17:17:54;54996.66;;;-143.77;79.94
13836;BME280;6988;52.614;13.500;2022-12-16T17:23:05;55041.81;;;-143.77;80.15
13836;BME280;6988;52.614;13.500;2022-12-16T17:28:14;55025.41;;;-143.77;80.00
13836;BME280;6988;52.614;13.500;2022-12-16T17:33:24;55035.66;;;-143.77;80.43
13836;BME280;6988;52.614;13.500;2022-12-16T17:38:37;55037.72;;;-143.77;80.56
13836;BME280;6988;52.614;13.500;2022-12-16T17:43:51;55021.28;;;-143.77;80.69
13836;BME280;6988;52.614;13.500;2022-12-16T17:49:00;55029.50;;;-143.77;80.58
13836;BME280;6988;52.614;13.500;2022-12-16T17:54:11;55037.72;;;-143.77;80.61
13836;BME280;6988;52.614;13.500;2022-12-16T17:59:21;55021.28;;;-143.77;81.01
13836;BME280;6988;52.614;13.500;2022-12-16T18:04:30;55017.19;;;-143.77;81.26
13836;BME280;6988;52.614;13.500;2022-12-16T18:09:41;55025.41;;;-143.77;81.79
13836;BME280;6988;52.614;13.500;2022-12-16T18:14:50;55025.41;;;-143.77;81.72
13836;BME280;6988;52.614;13.500;2022-12-16T18:19:59;55025.41;;;-143.77;81.76
13836;BME280;6988;52.614;13.500;2022-12-16T18:25:16;55027.44;;;-143.77;82.09
13836;BME280;6988;52.614;13.500;2022-12-16T18:30:25;55037.72;;;-143.77;81.55
13836;BME280;6988;52.614;13.500;2022-12-16T18:35:35;55050.03;;;-143.77;81.66
13836;BME280;6988;52.614;13.500;2022-12-16T18:40:46;55021.28;;;-143.77;81.57
13836;BME280;6988;52.614;13.500;2022-12-16T18:45:55;55019.25;;;-143.77;81.53
13836;BME280;6988;52.614;13.500;2022-12-16T18:51:05;55066.44;;;-143.77;81.65
13836;BME280;6988;52.614;13.500;2022-12-16T18:56:15;55045.91;;;-143.77;81.96
13836;BME280;6988;52.614;13.500;2022-12-16T19:01:25;55000.78;;;-143.77;82.03
13836;BME280;6988;52.614;13.500;2022-12-16T19:06:35;55023.34;;;-143.77;82.24
13836;BME280;6988;52.614;13.500;2022-12-16T19:11:46;55037.72;;;-143.77;82.36
13836;BME280;6988;52.614;13.500;2022-12-16T19:16:56;55000.78;;;-143.77;82.36
13836;BME280;6988;52.614;13.500;2022-12-16T19:22:05;55047.97;;;-143.77;82.80
13836;BME280;6988;52.614;13.500;2022-12-16T19:27:16;55002.81;;;-143.77;82.73
13836;BME280;6988;52.614;13.500;2022-12-16T19:32:26;54996.66;;;-143.77;82.65
13836;BME280;6988;52.614;13.500;2022-12-16T19:37:38;55041.81;;;-143.77;82.78
13836;BME280;6988;52.614;13.500;2022-12-16T19:42:50;55004.88;;;-143.77;82.78
13836;BME280;6988;52.614;13.500;2022-12-16T19:48:00;54992.56;;;-143.77;82.54
13836;BME280;6988;52.614;13.500;2022-12-16T19:53:10;55041.81;;;-143.77;82.85
13836;BME280;6988;52.614;13.500;2022-12-16T19:58:22;55017.19;;;-143.77;82.83
13836;BME280;6988;52.614;13.500;2022-12-16T20:03:31;55023.34;;;-143.77;82.86
13836;BME280;6988;52.614;13.500;2022-12-16T20:08:56;55080.81;;;-143.77;83.00
13836;BME280;6988;52.614;13.500;2022-12-16T20:14:08;55019.25;;;-143.77;82.76
13836;BME280;6988;52.614;13.500;2022-12-16T20:19:17;55017.19;;;-143.77;82.89
13836;BME280;6988;52.614;13.500;2022-12-16T20:24:27;55054.13;;;-143.77;82.90
13836;BME280;6988;52.614;13.500;2022-12-16T20:29:38;55039.75;;;-143.77;83.13
13836;BME280;6988;52.614;13.500;2022-12-16T20:34:47;55006.94;;;-143.77;82.95
13836;BME280;6988;52.614;13.500;2022-12-16T20:39:57;55037.72;;;-143.77;83.43
13836;BME280;6988;52.614;13.500;2022-12-16T20:45:08;54974.09;;;-143.77;83.52
13836;BME280;6988;52.614;13.500;2022-12-16T20:50:33;55006.94;;;-143.77;83.86
13836;BME280;6988;52.614;13.500;2022-12-16T20:55:42;55082.88;;;-143.77;83.87
13836;BME280;6988;52.614;13.500;2022-12-16T21:00:54;55041.81;;;-143.77;84.11
13836;BME280;6988;52.614;13.500;2022-12-16T21:06:05;55017.19;;;-143.77;84.23
13836;BME280;6988;52.614;13.500;2022-12-16T21:11:14;55004.88;;;-143.77;84.57
13836;BME280;6988;52.614;13.500;2022-12-16T21:16:25;55031.56;;;-143.77;84.66
13836;BME280;6988;52.614;13.500;2022-12-16T21:21:35;55050.03;;;-143.77;84.82
13836;BME280;6988;52.614;13.500;2022-12-16T21:26:44;55039.75;;;-143.77;84.97
13836;BME280;6988;52.614;13.500;2022-12-16T21:31:55;55011.03;;;-143.77;84.94
13836;BME280;6988;52.614;13.500;2022-12-16T21:37:05;54990.50;;;-143.77;84.77
13836;BME280;6988;52.614;13.500;2022-12-16T21:42:15;55021.28;;;-143.77;85.18
13836;BME280;6988;52.614;13.500;2022-12-16T21:47:25;54992.56;;;-143.77;85.30
13836;BME280;6988;52.614;13.500;2022-12-16T21:52:34;55035.66;;;-143.77;85.39
13836;BME280;6988;52.614;13.500;2022-12-16T21:57:44;55000.78;;;-143.77;85.54
13836;BME280;6988;52.614;13.500;2022-12-16T22:02:55;54998.72;;;-143.77;85.81
13836;BME280;6988;52.614;13.500;2022-12-16T22:08:13;55043.88;;;-143.77;85.88
13836;BME280;6988;52.614;13.500;2022-12-16T22:13:23;55037.72;;;-143.77;86.05
13836;BME280;6988;52.614;13.500;2022-12-16T22:18:34;55027.44;;;-143.77;86.36
13836;BME280;6988;52.614;13.500;2022-12-16T22:23:44;55021.28;;;-143.77;86.51
13836;BME280;6988;52.614;13.500;2022-12-16T22:28:54;55043.88;;;-143.77;86.64
13836;BME280;6988;52.614;13.500;2022-12-16T22:34:04;55047.97;;;-143.77;86.73
13836;BME280;6988;52.614;13.500;2022-12-16T22:39:14;55025.41;;;-143.77;86.97
13836;BME280;6988;52.614;13.500;2022-12-16T22:44:23;54984.34;;;-143.77;87.11
13836;BME280;6988;52.614;13.500;2022-12-16T23:04:38;55015.13;;;-143.77;86.16
13836;BME280;6988;52.614;13.500;2022-12-16T23:09:48;55033.59;;;-143.77;86.34
13836;BME280;6988;52.614;13.500;2022-12-16T23:14:57;55050.03;;;-143.77;86.81
13836;BME280;6988;52.614;13.500;2022-12-16T23:20:09;55017.19;;;-143.77;87.33
13836;BME280;6988;52.614;13.500;2022-12-16T23:25:19;54980.25;;;-143.77;87.69
13836;BME280;6988;52.614;13.500;2022-12-16T23:30:30;54970.00;;;-143.77;88.20
13836;BME280;6988;52.614;13.500;2022-12-16T23:35:52;55011.03;;;-143.77;88.66
13836;BME280;6988;52.614;13.500;2022-12-16T23:41:02;54982.31;;;-143.77;88.41
13836;BME280;6988;52.614;13.500;2022-12-16T23:46:11;55025.41;;;-143.77;88.44
13836;BME280;6988;52.614;13.500;2022-12-16T23:51:22;54994.63;;;-143.77;88.82
13836;BME280;6988;52.614;13.500;2022-12-16T23:56:32;55017.19;;;-143.77;88.95
